Dades meteomassalio
Diari Summary for Febrer 25, 2017 Units:  Metric    English   Both
« Previous Day
Next Day »
Diari Semanal Mensual Anual Personalitzat
  Maxima: Minima: Mijana:
Temperatura: 16.9 °C 1.5 °C 8.6 °C
Rosada: 4.4 °C -1.3 °C 1.3 °C
Humitat: 88 % 30 % 64 %
Velocitat del vent: 24.1 km/h 0.0 km/h 4.6 km/h
Racha vent: 24.1 km/h - -
Vent:- - SW
Pressio: 1022.2 hPa 1018.5 hPa -
Pluja: 0.0 mm    
Historical Graphs
 
 
Tabular Data for Febrer 25, 2017
Time Temperature Dew Point Pressure Wind Wind Speed Wind Gust Humidity Rainfall Rate (Hourly) solar Conditions
00:00 7.2 °C 0.8 °C 1020.2 hPa WSW 22.2 km/h 22.2 km/h 64 % 0.0 mm 0.0 W/m2 RA
00:05 7.2 °C 1.1 °C 1020.2 hPa West 24.1 km/h 24.1 km/h 65 % 0.0 mm 0.0 W/m2 CLR
00:10 7.1 °C 1.2 °C 1020.2 hPa WSW 19.3 km/h 19.3 km/h 66 % 0.0 mm 0.0 W/m2 CLR
00:15 7.0 °C 1.3 °C 1020.5 hPa West 14.8 km/h 14.8 km/h 67 % 0.0 mm 0.0 W/m2 CLR
00:20 6.9 °C 1.2 °C 1020.2 hPa WSW 19.3 km/h 19.3 km/h 67 % 0.0 mm 0.0 W/m2 CLR
00:25 6.9 °C 1.4 °C 1020.2 hPa West 24.1 km/h 24.1 km/h 68 % 0.0 mm 0.0 W/m2 CLR
00:30 6.9 °C 1.4 °C 1020.5 hPa WSW 18.5 km/h 18.5 km/h 68 % 0.0 mm 0.0 W/m2 CLR
00:35 6.8 °C 1.3 °C 1020.5 hPa WSW 12.9 km/h 12.9 km/h 68 % 0.0 mm 0.0 W/m2 CLR
00:40 6.7 °C 1.4 °C 1020.5 hPa WSW 7.4 km/h 7.4 km/h 69 % 0.0 mm 0.0 W/m2 CLR
00:45 6.6 °C 1.5 °C 1020.5 hPa WSW 20.4 km/h 20.4 km/h 70 % 0.0 mm 0.0 W/m2 CLR
00:50 6.6 °C 1.5 °C 1020.5 hPa WSW 22.2 km/h 22.2 km/h 70 % 0.0 mm 0.0 W/m2 CLR
00:55 6.6 °C 1.4 °C 1020.5 hPa SW 9.3 km/h 9.3 km/h 70 % 0.0 mm 0.0 W/m2 CLR
01:00 6.5 °C 1.6 °C 1020.9 hPa West 6.4 km/h 6.4 km/h 71 % 0.0 mm 0.0 W/m2 CLR
01:05 6.4 °C 1.5 °C 1020.9 hPa SW 9.3 km/h 9.5 km/h 71 % 0.0 mm 0.0 W/m2 CLR
01:10 6.4 °C 1.7 °C 1020.9 hPa WSW 18.5 km/h 18.5 km/h 72 % 0.0 mm 0.0 W/m2 CLR
01:11 6.4 °C 1.8 °C 1020.9 hPa WSW 18.5 km/h 18.5 km/h 72 % 0.0 mm 0.0 W/m2 CLR
01:16 6.4 °C 1.7 °C 1020.9 hPa WSW 18.5 km/h 18.5 km/h 72 % 0.0 mm 0.0 W/m2 CLR
01:21 6.3 °C 1.7 °C 1020.9 hPa SW 9.3 km/h 9.3 km/h 72 % 0.0 mm 0.0 W/m2 CLR
01:26 6.2 °C 1.6 °C 1020.9 hPa WSW 5.6 km/h 5.6 km/h 72 % 0.0 mm 0.0 W/m2 CLR
01:31 6.1 °C 1.6 °C 1020.9 hPa WSW 13.0 km/h 13.0 km/h 73 % 0.0 mm 0.0 W/m2 CLR
01:36 6.1 °C 1.6 °C 1020.5 hPa WSW 11.1 km/h 11.1 km/h 73 % 0.0 mm 0.0 W/m2 CLR
01:41 5.9 °C 1.4 °C 1020.5 hPa WSW 7.4 km/h 7.4 km/h 73 % 0.0 mm 0.0 W/m2 CLR
01:46 5.9 °C 1.6 °C 1020.5 hPa WSW 11.1 km/h 11.1 km/h 74 % 0.0 mm 0.0 W/m2 CLR
01:51 5.8 °C 1.5 °C 1020.5 hPa SW 11.1 km/h 11.1 km/h 74 % 0.0 mm 0.0 W/m2 CLR
01:56 5.7 °C 1.6 °C 1020.5 hPa WSW 8.0 km/h 8.0 km/h 75 % 0.0 mm 0.0 W/m2 CLR
02:01 5.7 °C 1.6 °C 1020.5 hPa WSW 13.0 km/h 13.0 km/h 75 % 0.0 mm 0.0 W/m2 CLR
02:06 5.8 °C 1.7 °C 1020.5 hPa SW 14.8 km/h 14.8 km/h 75 % 0.0 mm 0.0 W/m2 CLR
02:12 5.8 °C 1.7 °C 1020.5 hPa WSW 9.3 km/h 9.3 km/h 75 % 0.0 mm 0.0 W/m2 CLR
02:17 5.8 °C 1.7 °C 1020.5 hPa WNW 16.7 km/h 16.7 km/h 75 % 0.0 mm 0.0 W/m2 CLR
02:22 6.0 °C 1.9 °C 1020.5 hPa WSW 18.5 km/h 18.5 km/h 75 % 0.0 mm 0.0 W/m2 CLR
02:27 6.2 °C 2.1 °C 1020.5 hPa WNW 22.2 km/h 22.2 km/h 75 % 0.0 mm 0.0 W/m2 CLR
02:32 6.2 °C 2.1 °C 1020.5 hPa West 13.0 km/h 13.0 km/h 75 % 0.0 mm 0.0 W/m2 CLR
02:37 6.1 °C 1.9 °C 1020.9 hPa WSW 18.5 km/h 18.5 km/h 75 % 0.0 mm 0.0 W/m2 CLR
02:42 6.0 °C 1.9 °C 1020.9 hPa WSW 14.8 km/h 14.8 km/h 75 % 0.0 mm 0.0 W/m2 CLR
02:47 5.9 °C 1.8 °C 1020.5 hPa Calm     75 % 0.0 mm 0.0 W/m2 CLR
02:52 5.7 °C 1.8 °C 1020.5 hPa WSW 16.7 km/h 16.7 km/h 76 % 0.0 mm 0.0 W/m2 CLR
02:57 5.6 °C 1.7 °C 1020.5 hPa Calm     76 % 0.0 mm 0.0 W/m2 CLR
03:02 5.4 °C 1.7 °C 1020.5 hPa SW 3.2 km/h 3.2 km/h 77 % 0.0 mm 0.0 W/m2 CLR
03:07 5.3 °C 1.8 °C 1020.5 hPa SW 3.7 km/h   78 % 0.0 mm 0.0 W/m2 CLR
03:12 5.1 °C 1.6 °C 1020.5 hPa Calm     78 % 0.0 mm 0.0 W/m2 CLR
03:17 5.1 °C 1.8 °C 1020.5 hPa SW 5.6 km/h 5.6 km/h 79 % 0.0 mm 0.0 W/m2 CLR
03:22 5.0 °C 1.5 °C 1020.5 hPa SW 5.6 km/h 5.6 km/h 78 % 0.0 mm 0.0 W/m2 CLR
03:27 4.9 °C 1.6 °C 1020.5 hPa SW 5.6 km/h 5.6 km/h 79 % 0.0 mm 0.0 W/m2 CLR
03:32 4.8 °C 1.5 °C 1020.5 hPa WSW 5.6 km/h 5.6 km/h 79 % 0.0 mm 0.0 W/m2 CLR
03:37 4.8 °C 1.7 °C 1020.5 hPa Calm     80 % 0.0 mm 0.0 W/m2 CLR
03:42 4.8 °C 1.7 °C 1020.5 hPa WSW 9.3 km/h 9.3 km/h 80 % 0.0 mm 0.0 W/m2 CLR
03:47 4.9 °C 1.6 °C 1020.5 hPa WSW 11.1 km/h 11.1 km/h 79 % 0.0 mm 0.0 W/m2 CLR
03:52 4.9 °C 1.6 °C 1020.5 hPa WSW 5.6 km/h 5.6 km/h 79 % 0.0 mm 0.0 W/m2 CLR
03:57 4.9 °C 1.6 °C 1020.5 hPa SW 3.7 km/h 3.7 km/h 79 % 0.0 mm 0.0 W/m2 CLR
04:02 4.7 °C 1.4 °C 1020.5 hPa SW 1.6 km/h   79 % 0.0 mm 0.0 W/m2 CLR
04:07 4.5 °C 1.3 °C 1020.5 hPa SW 1.9 km/h   80 % 0.0 mm 0.0 W/m2 CLR
04:12 4.3 °C 1.3 °C 1020.2 hPa SW 7.4 km/h 7.4 km/h 81 % 0.0 mm 0.0 W/m2 CLR
04:17 4.2 °C 1.2 °C 1020.5 hPa WSW 7.4 km/h 7.4 km/h 81 % 0.0 mm 0.0 W/m2 CLR
04:22 4.4 °C 1.4 °C 1020.2 hPa West 14.8 km/h 14.8 km/h 81 % 0.0 mm 0.0 W/m2 CLR
04:27 4.6 °C 1.4 °C 1020.2 hPa WSW 5.6 km/h 5.6 km/h 80 % 0.0 mm 0.0 W/m2 CLR
04:32 4.8 °C 1.6 °C 1020.2 hPa WSW 9.7 km/h 9.7 km/h 80 % 0.0 mm 0.0 W/m2 CLR
04:37 4.9 °C 1.6 °C 1020.2 hPa West 13.0 km/h 13.0 km/h 79 % 0.0 mm 0.0 W/m2 CLR
04:42 5.1 °C 1.6 °C 1020.2 hPa West 5.6 km/h 5.6 km/h 78 % 0.0 mm 0.0 W/m2 CLR
04:47 5.1 °C 1.3 °C 1020.2 hPa Calm     77 % 0.0 mm 0.0 W/m2 CLR
04:52 4.8 °C 1.3 °C 1020.5 hPa Calm     78 % 0.0 mm 0.0 W/m2 CLR
04:57 4.5 °C 1.0 °C 1020.5 hPa Calm     78 % 0.0 mm 0.0 W/m2 CLR
05:02 4.3 °C 0.9 °C 1020.5 hPa Calm     79 % 0.0 mm 0.0 W/m2 CLR
05:07 4.1 °C 0.9 °C 1020.5 hPa Calm     80 % 0.0 mm 0.0 W/m2 CLR
05:12 4.1 °C 1.1 °C 1020.5 hPa Calm     81 % 0.0 mm 0.0 W/m2 CLR
05:13 4.1 °C 1.1 °C 1020.5 hPa Calm     81 % 0.0 mm 0.0 W/m2 CLR
05:18 4.1 °C 0.9 °C 1020.5 hPa Calm     80 % 0.0 mm 0.0 W/m2 CLR
05:23 4.1 °C 0.9 °C 1020.5 hPa Calm     80 % 0.0 mm 0.0 W/m2 CLR
05:28 4.0 °C 0.8 °C 1020.5 hPa Calm     80 % 0.0 mm 0.0 W/m2 CLR
05:33 4.1 °C 0.9 °C 1020.5 hPa WSW 5.6 km/h 5.6 km/h 80 % 0.0 mm 0.0 W/m2 CLR
05:38 4.1 °C 0.9 °C 1020.5 hPa WSW 5.6 km/h 5.6 km/h 80 % 0.0 mm 0.0 W/m2 CLR
05:43 4.1 °C 0.7 °C 1020.5 hPa WSW 5.6 km/h 5.6 km/h 79 % 0.0 mm 0.0 W/m2 CLR
05:48 3.8 °C 0.7 °C 1020.5 hPa SW 5.6 km/h 5.6 km/h 80 % 0.0 mm 0.0 W/m2 CLR
05:53 3.7 °C 0.6 °C 1020.5 hPa SW 5.6 km/h 5.6 km/h 80 % 0.0 mm 0.0 W/m2 CLR
05:58 3.6 °C 0.4 °C 1020.5 hPa SW 1.9 km/h   80 % 0.0 mm 0.0 W/m2 CLR
06:03 3.3 °C 0.2 °C 1020.5 hPa Calm     80 % 0.0 mm 0.0 W/m2 CLR
06:08 3.1 °C 0.3 °C 1020.5 hPa SW 6.4 km/h 6.4 km/h 82 % 0.0 mm 0.0 W/m2 CLR
06:13 3.0 °C 0.4 °C 1020.5 hPa SW 7.4 km/h 7.4 km/h 83 % 0.0 mm 0.0 W/m2 CLR
06:18 3.1 °C 0.3 °C 1020.5 hPa WSW 5.6 km/h 5.6 km/h 82 % 0.0 mm 0.0 W/m2 CLR
06:23 3.1 °C 0.3 °C 1020.5 hPa WSW 5.6 km/h 5.6 km/h 82 % 0.0 mm 0.0 W/m2 CLR
06:28 3.3 °C 0.5 °C 1020.9 hPa WSW 5.6 km/h 5.6 km/h 82 % 0.0 mm 0.0 W/m2 CLR
06:33 3.6 °C 0.7 °C 1020.9 hPa WSW 5.6 km/h 5.6 km/h 81 % 0.0 mm 0.0 W/m2 CLR
06:38 3.7 °C 0.6 °C 1020.9 hPa WSW 5.6 km/h 5.6 km/h 80 % 0.0 mm 0.0 W/m2 CLR
06:43 3.8 °C 0.4 °C 1020.9 hPa WSW 5.6 km/h 5.6 km/h 79 % 0.0 mm 0.0 W/m2 CLR
06:48 3.9 °C 0.4 °C 1020.9 hPa WSW 5.6 km/h 5.6 km/h 78 % 0.0 mm 0.0 W/m2 CLR
06:53 3.6 °C 0.1 °C 1020.9 hPa Calm     78 % 0.0 mm 0.0 W/m2 CLR
06:58 3.0 °C -0.3 °C 1020.9 hPa SW 5.6 km/h 5.6 km/h 79 % 0.0 mm 0.0 W/m2 CLR
07:03 2.6 °C -0.3 °C 1020.9 hPa SW 5.6 km/h 5.6 km/h 81 % 0.0 mm 0.0 W/m2 CLR
07:08 2.3 °C -0.4 °C 1020.9 hPa Calm     82 % 0.0 mm 0.0 W/m2 CLR
07:13 2.4 °C -0.2 °C 1020.9 hPa West 7.4 km/h 7.4 km/h 83 % 0.0 mm 0.0 W/m2 CLR
07:18 2.9 °C 0.3 °C 1020.9 hPa West 5.6 km/h 5.6 km/h 83 % 0.0 mm 0.0 W/m2 CLR
07:23 2.9 °C -0.2 °C 1020.9 hPa Calm     80 % 0.0 mm 0.0 W/m2 CLR
07:29 2.6 °C -0.4 °C 1020.9 hPa Calm     81 % 0.0 mm 0.0 W/m2 CLR
07:34 2.2 °C -0.6 °C 1020.9 hPa Calm     82 % 0.0 mm 0.0 W/m2 OVC
07:39 2.0 °C -0.6 °C 1021.2 hPa Calm     83 % 0.0 mm 5.0 W/m2 OVC
07:44 1.8 °C -0.8 °C 1021.2 hPa Calm     83 % 0.0 mm 7.0 W/m2 OVC
07:49 1.6 °C -0.8 °C 1021.2 hPa Calm     84 % 0.0 mm 11.0 W/m2 BKN
07:54 1.5 °C -0.7 °C 1021.2 hPa Calm     85 % 0.0 mm 14.0 W/m2 BKN
07:59 1.5 °C -0.6 °C 1021.2 hPa Calm     86 % 0.0 mm 18.0 W/m2 BKN
08:04 1.6 °C -0.6 °C 1021.6 hPa Calm     86 % 0.0 mm 21.0 W/m2 BKN
08:09 1.7 °C -0.4 °C 1021.6 hPa Calm     86 % 0.0 mm 25.0 W/m2 BKN
08:14 1.9 °C -0.2 °C 1021.6 hPa Calm     86 % 0.0 mm 32.0 W/m2 BKN
08:19 2.1 °C 0.0 °C 1021.6 hPa Calm     86 % 0.0 mm 46.0 W/m2 BKN
08:24 2.3 °C 0.0 °C 1021.6 hPa Calm     85 % 0.0 mm 56.0 W/m2 SCT
08:29 2.6 °C 0.3 °C 1021.6 hPa Calm     85 % 0.0 mm 54.0 W/m2 SCT
08:34 2.7 °C 0.3 °C 1021.6 hPa Calm     84 % 0.0 mm 53.0 W/m2 SCT
08:39 2.8 °C 0.4 °C 1021.6 hPa Calm     84 % 0.0 mm 63.0 W/m2 SCT
08:44 2.9 °C 0.4 °C 1021.6 hPa Calm     84 % 0.0 mm 104.0 W/m2 FEW
08:49 3.1 °C 0.5 °C 1021.9 hPa Calm     83 % 0.0 mm 113.0 W/m2 CLR
08:54 3.4 °C 0.8 °C 1021.6 hPa Calm     83 % 0.0 mm 93.0 W/m2 CLR
08:59 3.8 °C 0.9 °C 1021.6 hPa WSW 5.6 km/h 5.6 km/h 81 % 0.0 mm 79.0 W/m2 CLR
09:04 4.2 °C 1.1 °C 1021.6 hPa Calm     80 % 0.0 mm 186.0 W/m2 CLR
09:09 4.3 °C 1.2 °C 1021.6 hPa Calm     80 % 0.0 mm 156.0 W/m2 CLR
09:14 4.7 °C 1.3 °C 1021.6 hPa Calm     79 % 0.0 mm 153.0 W/m2 CLR
09:19 5.2 °C 1.7 °C 1021.9 hPa Calm     78 % 0.0 mm 167.0 W/m2 CLR
09:24 5.5 °C 1.8 °C 1021.9 hPa Calm     77 % 0.0 mm 156.0 W/m2 CLR
09:29 5.8 °C 2.1 °C 1021.9 hPa Calm     77 % 0.0 mm 135.0 W/m2 CLR
09:34 6.1 °C 2.2 °C 1021.9 hPa Calm     76 % 0.0 mm 200.0 W/m2 CLR
09:39 6.3 °C 2.2 °C 1021.9 hPa Calm     75 % 0.0 mm 163.0 W/m2 CLR
09:44 6.6 °C 2.1 °C 1021.9 hPa Calm     73 % 0.0 mm 148.0 W/m2 CLR
09:49 6.9 °C 2.0 °C 1021.9 hPa Calm     71 % 0.0 mm 197.0 W/m2 CLR
09:54 7.2 °C 2.1 °C 1021.9 hPa Calm     70 % 0.0 mm 197.0 W/m2 CLR
09:59 7.5 °C 2.2 °C 1021.9 hPa Calm     69 % 0.0 mm 271.0 W/m2 CLR
10:04 7.8 °C 1.9 °C 1021.9 hPa Calm     66 % 0.0 mm 241.0 W/m2 CLR
10:09 8.1 °C 1.4 °C 1021.9 hPa Calm     63 % 0.0 mm 306.0 W/m2 CLR
10:14 8.4 °C 1.3 °C 1021.9 hPa SW 3.7 km/h 3.7 km/h 61 % 0.0 mm 288.0 W/m2 CLR
10:19 8.7 °C 1.1 °C 1021.9 hPa West 3.2 km/h 3.2 km/h 59 % 0.0 mm 367.0 W/m2 CLR
10:24 8.8 °C 1.0 °C 1021.9 hPa NW 22.2 km/h 22.2 km/h 58 % 0.0 mm 243.0 W/m2 CLR
10:29 8.8 °C 0.9 °C 1021.9 hPa West 5.6 km/h 5.6 km/h 58 % 0.0 mm 348.0 W/m2 CLR
10:34 8.9 °C 1.1 °C 1021.9 hPa WNW 5.6 km/h 5.6 km/h 58 % 0.0 mm 341.0 W/m2 CLR
10:39 9.1 °C 1.0 °C 1021.9 hPa WNW 9.3 km/h 9.3 km/h 57 % 0.0 mm 411.0 W/m2 CLR
10:44 9.3 °C 0.4 °C 1021.9 hPa WNW 9.3 km/h 9.3 km/h 54 % 0.0 mm 341.0 W/m2 CLR
10:49 9.4 °C 0.3 °C 1021.9 hPa West 13.0 km/h 13.0 km/h 53 % 0.0 mm 420.0 W/m2 CLR
10:54 9.7 °C 1.3 °C 1021.6 hPa WSW 7.4 km/h 7.4 km/h 56 % 0.0 mm 425.0 W/m2 CLR
10:59 10.0 °C 1.1 °C 1021.9 hPa WNW 11.3 km/h 11.3 km/h 54 % 0.0 mm 471.0 W/m2 CLR
11:04 10.1 °C 0.4 °C 1021.9 hPa West 9.3 km/h 9.3 km/h 51 % 0.0 mm 501.0 W/m2 CLR
11:09 10.2 °C 0.2 °C 1021.6 hPa West 9.3 km/h 9.3 km/h 50 % 0.0 mm 520.0 W/m2 CLR
11:10 10.2 °C 0.2 °C 1021.6 hPa NW 9.3 km/h 9.3 km/h 50 % 0.0 mm 508.0 W/m2 CLR
11:15 10.4 °C 0.7 °C 1021.6 hPa WSW 9.3 km/h 9.3 km/h 51 % 0.0 mm 547.0 W/m2 CLR
11:20 10.5 °C 0.2 °C 1021.6 hPa SW 8.0 km/h 8.0 km/h 49 % 0.0 mm 504.0 W/m2 CLR
11:25 10.8 °C 0.8 °C 1021.6 hPa WNW 20.4 km/h 20.4 km/h 50 % 0.0 mm 563.0 W/m2 CLR
11:30 11.0 °C 0.7 °C 1021.6 hPa NW 5.6 km/h 5.6 km/h 49 % 0.0 mm 540.0 W/m2 CLR
11:35 11.1 °C 0.2 °C 1021.6 hPa West 7.4 km/h 7.4 km/h 47 % 0.0 mm 568.0 W/m2 CLR
11:40 11.1 °C 0.8 °C 1021.6 hPa West 1.9 km/h 1.9 km/h 49 % 0.0 mm 575.0 W/m2 CLR
11:45 11.4 °C 0.8 °C 1021.2 hPa SW 3.7 km/h 3.7 km/h 48 % 0.0 mm 580.0 W/m2 CLR
11:50 11.6 °C 0.7 °C 1021.2 hPa West 11.1 km/h 11.1 km/h 47 % 0.0 mm 589.0 W/m2 CLR
11:55 11.7 °C 0.7 °C 1021.2 hPa NNW 6.4 km/h 6.4 km/h 47 % 0.0 mm 594.0 W/m2 CLR
12:00 11.7 °C 0.2 °C 1021.2 hPa NNW 9.3 km/h 9.3 km/h 45 % 0.0 mm 601.0 W/m2 CLR
12:05 11.8 °C 0.5 °C 1021.2 hPa NNW 7.4 km/h 7.4 km/h 46 % 0.0 mm 606.0 W/m2 CLR
12:10 11.9 °C 0.3 °C 1021.2 hPa Calm     45 % 0.0 mm 612.0 W/m2 CLR
12:15 12.2 °C 0.6 °C 1021.2 hPa SW 7.4 km/h 7.4 km/h 45 % 0.0 mm 619.0 W/m2 CLR
12:20 12.4 °C 0.8 °C 1021.2 hPa WSW 11.1 km/h 11.1 km/h 45 % 0.0 mm 622.0 W/m2 CLR
12:25 12.5 °C 0.2 °C 1021.2 hPa NNW 7.4 km/h 7.4 km/h 43 % 0.0 mm 628.0 W/m2 CLR
12:30 12.5 °C 0.2 °C 1020.9 hPa WNW 9.3 km/h 9.3 km/h 43 % 0.0 mm 631.0 W/m2 CLR
12:35 12.7 °C 0.4 °C 1020.9 hPa WNW 8.0 km/h 8.5 km/h 43 % 0.0 mm 636.0 W/m2 CLR
12:40 12.8 °C 0.2 °C 1020.9 hPa West 7.4 km/h   42 % 0.0 mm 638.0 W/m2 CLR
12:45 13.1 °C 0.1 °C 1020.5 hPa NW 6.4 km/h 6.4 km/h 41 % 0.0 mm 635.0 W/m2 CLR
12:50 13.2 °C 0.6 °C 1020.5 hPa NW 7.4 km/h 7.4 km/h 42 % 0.0 mm 633.0 W/m2 CLR
12:55 13.2 °C 0.8 °C 1020.5 hPa NW 11.3 km/h 11.3 km/h 43 % 0.0 mm 649.0 W/m2 CLR
13:00 13.2 °C 0.6 °C 1020.5 hPa NNW 7.4 km/h 7.4 km/h 42 % 0.0 mm 649.0 W/m2 CLR
13:05 13.4 °C 0.4 °C 1020.5 hPa NW 11.1 km/h 11.1 km/h 41 % 0.0 mm 649.0 W/m2 CLR
13:10 13.6 °C 0.9 °C 1020.5 hPa NNW 7.4 km/h 7.4 km/h 42 % 0.0 mm 647.0 W/m2 CLR
13:15 13.7 °C 0.3 °C 1020.2 hPa WSW 18.5 km/h 18.5 km/h 40 % 0.0 mm 649.0 W/m2 CLR
13:20 13.7 °C -0.4 °C 1020.2 hPa Calm     38 % 0.0 mm 649.0 W/m2 CLR
13:25 13.9 °C 0.6 °C 1020.2 hPa NW 8.0 km/h 8.0 km/h 40 % 0.0 mm 649.0 W/m2 CLR
13:30 13.9 °C 0.6 °C 1020.2 hPa NW 9.7 km/h 9.7 km/h 40 % 0.0 mm 649.0 W/m2 CLR
13:35 13.9 °C 0.6 °C 1020.2 hPa NW 18.5 km/h 18.5 km/h 40 % 0.0 mm 645.0 W/m2 CLR
13:40 14.0 °C -0.1 °C 1020.2 hPa North 5.6 km/h 5.6 km/h 38 % 0.0 mm 642.0 W/m2 CLR
13:45 14.1 °C 0.7 °C 1019.9 hPa NW 16.7 km/h 16.7 km/h 40 % 0.0 mm 640.0 W/m2 CLR
13:50 14.3 °C 0.8 °C 1019.9 hPa NNW 9.3 km/h 9.3 km/h 40 % 0.0 mm 640.0 W/m2 CLR
13:55 14.2 °C 0.1 °C 1019.9 hPa NNW 6.4 km/h 6.4 km/h 38 % 0.0 mm 636.0 W/m2 CLR
14:00 14.3 °C 0.1 °C 1019.9 hPa North 1.9 km/h 1.9 km/h 38 % 0.0 mm 635.0 W/m2 CLR
14:05 14.4 °C 0.7 °C 1019.9 hPa Calm     39 % 0.0 mm 629.0 W/m2 CLR
14:10 14.7 °C 1.2 °C 1019.9 hPa Calm     40 % 0.0 mm 626.0 W/m2 CLR
14:15 15.0 °C 0.1 °C 1019.9 hPa SW 1.9 km/h 1.9 km/h 36 % 0.0 mm 621.0 W/m2 CLR
14:20 15.1 °C 0.5 °C 1019.5 hPa Calm     37 % 0.0 mm 615.0 W/m2 CLR
14:25 15.3 °C -0.1 °C 1019.5 hPa Calm     35 % 0.0 mm 608.0 W/m2 CLR
14:30 15.4 °C 0.4 °C 1019.5 hPa Calm     36 % 0.0 mm 605.0 W/m2 CLR
14:35 15.6 °C -0.3 °C 1019.5 hPa Calm     34 % 0.0 mm 601.0 W/m2 CLR
14:40 15.4 °C 0.0 °C 1019.5 hPa Calm     35 % 0.0 mm 592.0 W/m2 CLR
14:45 15.4 °C 0.1 °C 1019.5 hPa Calm     35 % 0.0 mm 584.0 W/m2 CLR
14:50 15.7 °C 0.2 °C 1019.2 hPa Calm     35 % 0.0 mm 578.0 W/m2 CLR
14:55 15.8 °C -0.1 °C 1019.2 hPa Calm     34 % 0.0 mm 573.0 W/m2 CLR
15:00 15.6 °C -0.2 °C 1019.2 hPa ENE 5.6 km/h 5.6 km/h 34 % 0.0 mm 564.0 W/m2 CLR
15:05 15.4 °C -0.4 °C 1019.2 hPa ESE 3.7 km/h 3.7 km/h 34 % 0.0 mm 555.0 W/m2 CLR
15:10 15.4 °C -0.4 °C 1019.2 hPa Calm     34 % 0.0 mm 547.0 W/m2 CLR
15:15 15.7 °C -0.6 °C 1019.2 hPa ENE 3.7 km/h 3.7 km/h 33 % 0.0 mm 540.0 W/m2 CLR
15:20 15.8 °C 0.0 °C 1019.2 hPa Calm   0.2 km/h 34 % 0.0 mm 527.0 W/m2 CLR
15:25 15.8 °C -0.5 °C 1019.2 hPa Calm     33 % 0.0 mm 520.0 W/m2 CLR
15:30 15.9 °C -0.3 °C 1018.8 hPa Calm     33 % 0.0 mm 506.0 W/m2 CLR
15:35 16.3 °C 0.4 °C 1018.8 hPa NE 5.6 km/h 5.6 km/h 34 % 0.0 mm 496.0 W/m2 CLR
15:40 16.3 °C -0.4 °C 1018.8 hPa Calm     32 % 0.0 mm 482.0 W/m2 CLR
15:45 16.4 °C -0.4 °C 1018.8 hPa Calm     32 % 0.0 mm 478.0 W/m2 CLR
15:50 16.8 °C -0.4 °C 1018.8 hPa ENE 3.2 km/h 3.2 km/h 31 % 0.0 mm 464.0 W/m2 CLR
15:55 16.7 °C -0.6 °C 1018.8 hPa Calm     31 % 0.0 mm 452.0 W/m2 CLR
16:00 16.7 °C -1.0 °C 1018.8 hPa Calm     30 % 0.0 mm 441.0 W/m2 CLR
16:05 16.8 °C -0.4 °C 1018.8 hPa Calm     31 % 0.0 mm 429.0 W/m2 CLR
16:10 16.9 °C -0.3 °C 1018.8 hPa Calm     31 % 0.0 mm 415.0 W/m2 CLR
16:15 16.9 °C -0.3 °C 1018.8 hPa Calm     31 % 0.0 mm 404.0 W/m2 CLR
16:20 16.9 °C -0.8 °C 1018.8 hPa Calm     30 % 0.0 mm 392.0 W/m2 CLR
16:25 16.8 °C -0.9 °C 1018.8 hPa Calm     30 % 0.0 mm 381.0 W/m2 CLR
16:30 16.7 °C -0.6 °C 1018.8 hPa ESE 3.7 km/h 3.7 km/h 31 % 0.0 mm 350.0 W/m2 CLR
16:35 16.6 °C -0.7 °C 1018.8 hPa Calm     31 % 0.0 mm 308.0 W/m2 CLR
16:40 16.6 °C -0.7 °C 1018.8 hPa Calm     31 % 0.0 mm 306.0 W/m2 CLR
16:45 16.4 °C -1.2 °C 1018.8 hPa ESE 5.6 km/h 5.6 km/h 30 % 0.0 mm 301.0 W/m2 CLR
16:50 16.2 °C -0.9 °C 1018.8 hPa Calm     31 % 0.0 mm 308.0 W/m2 CLR
16:55 16.3 °C -0.8 °C 1018.5 hPa Calm     31 % 0.0 mm 301.0 W/m2 CLR
17:00 16.6 °C -0.7 °C 1018.5 hPa Calm     31 % 0.0 mm 288.0 W/m2 CLR
17:05 16.6 °C -1.1 °C 1018.5 hPa Calm     30 % 0.0 mm 214.0 W/m2 CLR
17:10 16.4 °C -1.3 °C 1018.5 hPa Calm     30 % 0.0 mm 207.0 W/m2 CLR
17:15 16.4 °C -1.3 °C 1018.5 hPa Calm     30 % 0.0 mm 165.0 W/m2 CLR
17:20 16.4 °C 0.9 °C 1018.5 hPa NE 3.2 km/h 3.2 km/h 35 % 0.0 mm 186.0 W/m2 CLR
17:25 16.2 °C 0.7 °C 1018.8 hPa NNE 6.4 km/h 6.4 km/h 35 % 0.0 mm 192.0 W/m2 CLR
17:30 16.1 °C 0.6 °C 1018.8 hPa NE 5.6 km/h 5.6 km/h 35 % 0.0 mm 163.0 W/m2 CLR
17:35 15.9 °C 0.8 °C 1018.8 hPa NE 7.4 km/h 7.4 km/h 36 % 0.0 mm 139.0 W/m2 CLR
17:40 15.7 °C 0.7 °C 1018.8 hPa NE 5.6 km/h 5.6 km/h 36 % 0.0 mm 113.0 W/m2 CLR
17:45 15.7 °C 0.6 °C 1018.8 hPa Calm     36 % 0.0 mm 130.0 W/m2 CLR
17:51 15.7 °C 0.6 °C 1018.8 hPa Calm     36 % 0.0 mm 109.0 W/m2 CLR
17:56 15.7 °C 0.3 °C 1018.8 hPa Calm     35 % 0.0 mm 105.0 W/m2 CLR
18:01 15.7 °C 0.3 °C 1018.8 hPa ENE 3.7 km/h 3.7 km/h 35 % 0.0 mm 74.0 W/m2 CLR
18:06 15.7 °C 0.2 °C 1019.2 hPa Calm     35 % 0.0 mm 53.0 W/m2 SCT
18:10 15.4 °C 1.8 °C 1019.2 hPa ESE 5.6 km/h 5.6 km/h 40 % 0.0 mm 58.0 W/m2 SCT
18:15 15.1 °C 3.9 °C 1019.2 hPa East 7.4 km/h 7.4 km/h 47 % 0.0 mm 46.0 W/m2 SCT
18:21 14.7 °C 4.1 °C 1019.2 hPa ESE 5.6 km/h 5.6 km/h 49 % 0.0 mm 30.0 W/m2 BKN
18:26 14.2 °C 3.9 °C 1019.2 hPa ESE 7.4 km/h 7.4 km/h 50 % 0.0 mm 21.0 W/m2 BKN
18:31 13.9 °C 4.2 °C 1019.2 hPa SE 5.6 km/h 5.6 km/h 52 % 0.0 mm 18.0 W/m2 BKN
18:36 13.6 °C 4.2 °C 1019.2 hPa SE 6.4 km/h 6.4 km/h 53 % 0.0 mm 14.0 W/m2 BKN
18:41 13.3 °C 4.2 °C 1019.5 hPa SE 5.6 km/h 5.6 km/h 54 % 0.0 mm 9.0 W/m2 BKN
18:46 13.1 °C 4.2 °C 1019.5 hPa SE 7.4 km/h 7.4 km/h 55 % 0.0 mm 5.0 W/m2 BKN
18:51 12.8 °C 4.2 °C 1019.5 hPa ESE 5.6 km/h 5.6 km/h 56 % 0.0 mm 0.0 W/m2 OVC
18:56 12.6 °C 4.3 °C 1019.5 hPa ESE 5.6 km/h 5.6 km/h 57 % 0.0 mm 0.0 W/m2 OVC
19:01 12.4 °C 4.3 °C 1019.5 hPa SE 5.6 km/h 5.6 km/h 58 % 0.0 mm 0.0 W/m2 CLR
19:06 12.2 °C 4.4 °C 1019.9 hPa ESE 5.6 km/h 5.6 km/h 59 % 0.0 mm 0.0 W/m2 CLR
19:11 12.0 °C 4.4 °C 1019.9 hPa ESE 8.0 km/h 8.0 km/h 60 % 0.0 mm 0.0 W/m2 CLR
19:16 11.9 °C 4.4 °C 1019.9 hPa ESE 7.4 km/h 7.4 km/h 60 % 0.0 mm 0.0 W/m2 CLR
19:21 11.8 °C 4.3 °C 1019.9 hPa Calm     60 % 0.0 mm 0.0 W/m2 CLR
19:26 11.6 °C 4.3 °C 1019.9 hPa Calm     61 % 0.0 mm 0.0 W/m2 CLR
19:31 11.4 °C 4.2 °C 1019.9 hPa Calm     61 % 0.0 mm 0.0 W/m2 CLR
19:36 11.3 °C 4.3 °C 1019.9 hPa Calm     62 % 0.0 mm 0.0 W/m2 CLR
19:41 11.1 °C 4.3 °C 1019.9 hPa Calm     63 % 0.0 mm 0.0 W/m2 CLR
19:46 11.0 °C 4.2 °C 1019.9 hPa ESE 4.8 km/h 4.8 km/h 63 % 0.0 mm 0.0 W/m2 CLR
19:51 10.8 °C 4.1 °C 1019.9 hPa Calm     63 % 0.0 mm 0.0 W/m2 CLR
19:56 10.7 °C 4.1 °C 1020.2 hPa Calm     64 % 0.0 mm 0.0 W/m2 CLR
20:01 10.6 °C 4.2 °C 1020.2 hPa Calm     65 % 0.0 mm 0.0 W/m2 CLR
20:06 10.4 °C 4.1 °C 1020.2 hPa Calm     65 % 0.0 mm 0.0 W/m2 CLR
20:11 10.3 °C 4.2 °C 1020.2 hPa Calm     66 % 0.0 mm 0.0 W/m2 CLR
20:16 10.1 °C 4.1 °C 1020.2 hPa Calm     66 % 0.0 mm 0.0 W/m2 CLR
20:21 10.0 °C 4.2 °C 1020.2 hPa Calm     67 % 0.0 mm 0.0 W/m2 CLR
20:26 9.8 °C 4.0 °C 1020.2 hPa Calm     67 % 0.0 mm 0.0 W/m2 CLR
20:31 9.7 °C 4.1 °C 1020.5 hPa Calm     68 % 0.0 mm 0.0 W/m2 CLR
20:36 9.5 °C 4.1 °C 1020.5 hPa Calm     69 % 0.0 mm 0.0 W/m2 CLR
20:41 9.4 °C 4.0 °C 1020.5 hPa Calm     69 % 0.0 mm 0.0 W/m2 CLR
20:46 9.3 °C 4.1 °C 1020.5 hPa Calm     70 % 0.0 mm 0.0 W/m2 CLR
20:51 9.2 °C 4.0 °C 1020.5 hPa Calm     70 % 0.0 mm 0.0 W/m2 CLR
20:56 8.9 °C 3.8 °C 1020.5 hPa Calm     70 % 0.0 mm 0.0 W/m2 CLR
21:01 8.6 °C 3.7 °C 1020.5 hPa Calm     71 % 0.0 mm 0.0 W/m2 CLR
21:06 8.3 °C 3.7 °C 1020.9 hPa Calm     73 % 0.0 mm 0.0 W/m2 CLR
21:11 8.1 °C 3.8 °C 1020.9 hPa Calm     74 % 0.0 mm 0.0 W/m2 CLR
21:16 8.0 °C 3.7 °C 1020.9 hPa Calm     74 % 0.0 mm 0.0 W/m2 CLR
21:21 7.8 °C 3.6 °C 1021.2 hPa Calm     75 % 0.0 mm 0.0 W/m2 CLR
21:26 7.5 °C 3.3 °C 1021.2 hPa Calm     75 % 0.0 mm 0.0 W/m2 CLR
21:31 7.2 °C 3.3 °C 1021.2 hPa Calm     76 % 0.0 mm 0.0 W/m2 CLR
21:36 7.0 °C 3.2 °C 1021.2 hPa Calm     77 % 0.0 mm 0.0 W/m2 CLR
21:41 6.8 °C 3.3 °C 1021.2 hPa Calm     78 % 0.0 mm 0.0 W/m2 CLR
21:46 6.6 °C 3.2 °C 1021.6 hPa Calm     79 % 0.0 mm 0.0 W/m2 CLR
21:51 6.4 °C 3.1 °C 1021.6 hPa Calm     79 % 0.0 mm 0.0 W/m2 CLR
21:56 6.3 °C 3.1 °C 1021.6 hPa Calm     80 % 0.0 mm 0.0 W/m2 CLR
22:01 6.1 °C 2.9 °C 1021.6 hPa Calm     80 % 0.0 mm 0.0 W/m2 CLR
22:06 5.8 °C 2.7 °C 1021.6 hPa Calm     80 % 0.0 mm 0.0 W/m2 CLR
22:11 5.7 °C 2.7 °C 1021.6 hPa Calm     81 % 0.0 mm 0.0 W/m2 CLR
22:16 5.4 °C 2.6 °C 1021.6 hPa Calm     82 % 0.0 mm 0.0 W/m2 CLR
22:21 5.3 °C 2.4 °C 1021.9 hPa Calm     82 % 0.0 mm 0.0 W/m2 CLR
22:26 5.1 °C 2.2 °C 1021.9 hPa Calm     82 % 0.0 mm 0.0 W/m2 CLR
22:31 4.9 °C 2.2 °C 1021.9 hPa Calm     83 % 0.0 mm 0.0 W/m2 CLR
22:36 4.7 °C 2.1 °C 1021.9 hPa Calm     83 % 0.0 mm 0.0 W/m2 CLR
22:41 4.6 °C 2.1 °C 1021.9 hPa Calm     84 % 0.0 mm 0.0 W/m2 CLR
22:46 4.4 °C 2.0 °C 1021.9 hPa Calm     84 % 0.0 mm 0.0 W/m2 CLR
22:51 4.3 °C 1.9 °C 1021.9 hPa Calm     84 % 0.0 mm 0.0 W/m2 CLR
22:56 4.2 °C 1.9 °C 1021.9 hPa Calm     85 % 0.0 mm 0.0 W/m2 CLR
23:01 4.1 °C 1.8 °C 1021.9 hPa Calm     85 % 0.0 mm 0.0 W/m2 CLR
23:06 4.0 °C 1.9 °C 1021.9 hPa Calm     86 % 0.0 mm 0.0 W/m2 CLR
23:11 3.9 °C 1.8 °C 1021.9 hPa Calm     86 % 0.0 mm 0.0 W/m2 CLR
23:16 3.8 °C 1.7 °C 1021.9 hPa Calm     86 % 0.0 mm 0.0 W/m2 CLR
23:21 3.7 °C 1.6 °C 1022.2 hPa Calm     86 % 0.0 mm 0.0 W/m2 CLR
23:26 3.6 °C 1.5 °C 1022.2 hPa Calm     86 % 0.0 mm 0.0 W/m2 CLR
23:31 3.5 °C 1.4 °C 1021.9 hPa Calm     86 % 0.0 mm 0.0 W/m2 CLR
23:36 3.3 °C 1.4 °C 1022.2 hPa Calm     87 % 0.0 mm 0.0 W/m2 CLR
23:41 3.2 °C 1.3 °C 1022.2 hPa Calm     87 % 0.0 mm 0.0 W/m2 CLR
23:46 3.1 °C 1.3 °C 1022.2 hPa Calm     88 % 0.0 mm 0.0 W/m2 CLR
23:51 3.1 °C 1.3 °C 1022.2 hPa Calm     88 % 0.0 mm 0.0 W/m2 CLR
23:56 3.2 °C 1.4 °C 1022.2 hPa Calm     88 % 0.0 mm 0.0 W/m2 CLR
Lo Temps de Massalio
Compliments of Weather Underground - 1.25 mb